WATER LEVELS

Elbe

Guaranteed water level and forecast    Ústí nad Labem-Střekov

Guaranteed water level
170 cm
on 05.12.2022 more information
Forecast
180 cm
on 06.12.2022 07:00
Tendency
Slowly rising
on 06.12.2022 tendency methodology
Assumption
190 cm
on 07.12.2022 07:00
(Source data ČHMÚ a Povodí Labe)

Ústí nad Labem

Date and time (UTC) H (cm) Q (m³/s)
6. 12. 2022 03:30 183 160
6. 12. 2022 03:00 183 160
6. 12. 2022 02:00 183 160
6. 12. 2022 01:00 183 160
6. 12. 2022 00:00 181 156
5. 12. 2022 23:00 172 142
5. 12. 2022 22:00 172 142
5. 12. 2022 21:00 172 142
5. 12. 2022 20:00 172 142
5. 12. 2022 19:00 172 142
5. 12. 2022 18:00 172 142
5. 12. 2022 17:00 172 142
5. 12. 2022 16:00 172 142
5. 12. 2022 15:00 172 142

H - water level, Q - discharge
more information

Mělník

Date and time (UTC) H (cm) Q (m³/s)
6. 12. 2022 03:30 265 -
6. 12. 2022 03:00 262 -
6. 12. 2022 02:00 258 -
6. 12. 2022 01:00 262 -
6. 12. 2022 00:00 266 -
5. 12. 2022 23:00 264 -
5. 12. 2022 22:00 264 -
5. 12. 2022 21:00 270 -
5. 12. 2022 20:00 266 -
5. 12. 2022 19:00 258 -
5. 12. 2022 18:00 264 -
5. 12. 2022 17:00 273 -
5. 12. 2022 16:00 264 -
5. 12. 2022 15:00 258 -

H - water level, Q - discharge
more information

Kostelec nad Labem

Date and time (UTC) H (cm) Q (m³/s)
6. 12. 2022 03:40 401 -
6. 12. 2022 03:00 404 39
6. 12. 2022 02:00 402 29
6. 12. 2022 01:00 401 19
6. 12. 2022 00:00 400 20
5. 12. 2022 23:00 402 30
5. 12. 2022 22:00 402 30
5. 12. 2022 21:00 402 30
5. 12. 2022 20:00 400 37
5. 12. 2022 19:00 405 43
5. 12. 2022 18:00 402 29
5. 12. 2022 17:00 400 19
5. 12. 2022 16:00 402 35
5. 12. 2022 15:00 404 31

H - water level, Q - discharge
more information

Přelouč

Date and time (UTC) H (cm) Q (m³/s)
6. 12. 2022 03:30 40 15.7
6. 12. 2022 03:00 38 15
6. 12. 2022 02:00 37 14
6. 12. 2022 01:00 36 14
6. 12. 2022 00:00 36 14
5. 12. 2022 23:00 36 14
5. 12. 2022 22:00 41 16
5. 12. 2022 21:00 47 20
5. 12. 2022 20:00 45 19
5. 12. 2022 19:00 37 14
5. 12. 2022 18:00 29 11
5. 12. 2022 17:00 46 19
5. 12. 2022 16:00 48 20
5. 12. 2022 15:00 47 20

H - water level, Q - discharge
more information


Vltava

Praha-Chuchle

Date and time (UTC) H (cm) Q (m³/s)
6. 12. 2022 03:30 64 113
6. 12. 2022 03:00 64 113
6. 12. 2022 02:00 64 113
6. 12. 2022 01:00 64 113
6. 12. 2022 00:00 63 109
5. 12. 2022 23:00 63 109
5. 12. 2022 22:00 63 109
5. 12. 2022 21:00 63 109
5. 12. 2022 20:00 63 109
5. 12. 2022 19:00 63 109
5. 12. 2022 18:00 63 109
5. 12. 2022 17:00 63 109
5. 12. 2022 16:00 63 109
5. 12. 2022 15:00 63 109

H - water level, Q - discharge
more information

VD Orlík

Date and time (UTC) H (m n. m.) Q (m³/s)
6. 12. 2022 03:40 338.63 0
6. 12. 2022 03:00 338.62 0
6. 12. 2022 02:00 338.61 0
6. 12. 2022 01:00 338.60 0
6. 12. 2022 00:00 338.59 0
5. 12. 2022 23:00 338.58 0
5. 12. 2022 22:00 338.57 0
5. 12. 2022 21:00 338.55 0
5. 12. 2022 20:00 338.54 0
5. 12. 2022 19:00 338.53 0
5. 12. 2022 18:00 338.51 0
5. 12. 2022 17:00 338.50 0
5. 12. 2022 16:00 338.49 0
5. 12. 2022 15:00 338.49 0

H - water level, Q - outflow

VD Kořensko

Date and time (UTC) H (m n. m.) Q (m³/s)
6. 12. 2022 03:40 352.54 28.1
6. 12. 2022 03:00 352.54 28
6. 12. 2022 02:00 352.55 26
6. 12. 2022 01:00 352.54 23
6. 12. 2022 00:00 352.53 23
5. 12. 2022 23:00 352.52 23
5. 12. 2022 22:00 352.52 23
5. 12. 2022 21:00 352.51 23
5. 12. 2022 20:00 352.50 27
5. 12. 2022 19:00 352.51 29
5. 12. 2022 18:00 352.52 41
5. 12. 2022 17:00 352.53 58
5. 12. 2022 16:00 352.53 36
5. 12. 2022 15:00 352.54 36

H - water level, Q - outflow

České Budějovice

Date and time (UTC) H (cm) Q (m³/s)
6. 12. 2022 03:30 104 22.5
6. 12. 2022 03:00 104 23
6. 12. 2022 02:00 104 23
6. 12. 2022 01:00 104 22
6. 12. 2022 00:00 103 20
5. 12. 2022 23:00 102 17
5. 12. 2022 22:00 102 18
5. 12. 2022 21:00 101 17
5. 12. 2022 20:00 102 18
5. 12. 2022 19:00 102 18
5. 12. 2022 18:00 102 18
5. 12. 2022 17:00 102 18
5. 12. 2022 16:00 102 18
5. 12. 2022 15:00 102 17

H - water level, Q - discharge
more information


Morava

Strážnice

Date and time (UTC) H (cm) Q (m³/s)
6. 12. 2022 03:20 95 12.8
6. 12. 2022 03:00 94 12
6. 12. 2022 02:00 95 13
6. 12. 2022 01:00 95 13
6. 12. 2022 00:00 95 13
5. 12. 2022 23:00 95 13
5. 12. 2022 22:00 95 13
5. 12. 2022 21:00 95 13
5. 12. 2022 20:00 95 13
5. 12. 2022 19:00 95 13
5. 12. 2022 18:00 95 13
5. 12. 2022 17:00 95 13
5. 12. 2022 16:00 95 13
5. 12. 2022 15:00 95 13

H - water level, Q - discharge
more information

Kroměříž

Date and time (UTC) H (cm) Q (m³/s)
6. 12. 2022 03:20 116 10.2
6. 12. 2022 03:00 116 10
6. 12. 2022 02:00 115 10
6. 12. 2022 01:00 115 10
6. 12. 2022 00:00 115 10
5. 12. 2022 23:00 115 10
5. 12. 2022 22:00 116 10
5. 12. 2022 21:00 116 10
5. 12. 2022 20:00 116 10
5. 12. 2022 19:00 115 10
5. 12. 2022 18:00 116 10
5. 12. 2022 17:00 117 11
5. 12. 2022 16:00 117 11
5. 12. 2022 15:00 117 11

H - water level, Q - discharge
more information
Source data
Labe Basin Vltava Basin Povodí Moravy ČHMÚ